sensor_id;sensor_type;location;lat;lon;timestamp;P1;durP1;ratioP1;P2;durP2;ratioP2
14847;SDS011;7516;43.570;1.448;2022-08-05T00:00:26;3.10;;;2.80;;
14847;SDS011;7516;43.570;1.448;2022-08-05T00:02:55;5.47;;;3.20;;
14847;SDS011;7516;43.570;1.448;2022-08-05T00:05:23;6.45;;;3.10;;
14847;SDS011;7516;43.570;1.448;2022-08-05T00:07:51;5.28;;;2.92;;
14847;SDS011;7516;43.570;1.448;2022-08-05T00:10:18;3.88;;;3.10;;
14847;SDS011;7516;43.570;1.448;2022-08-05T00:12:47;3.60;;;2.80;;
14847;SDS011;7516;43.570;1.448;2022-08-05T00:15:14;5.30;;;3.10;;
14847;SDS011;7516;43.570;1.448;2022-08-05T00:17:41;3.78;;;2.80;;
14847;SDS011;7516;43.570;1.448;2022-08-05T00:20:10;3.47;;;2.75;;
14847;SDS011;7516;43.570;1.448;2022-08-05T00:22:38;4.68;;;2.90;;
14847;SDS011;7516;43.570;1.448;2022-08-05T00:25:06;4.47;;;2.80;;
14847;SDS011;7516;43.570;1.448;2022-08-05T00:27:33;4.95;;;3.38;;
14847;SDS011;7516;43.570;1.448;2022-08-05T00:30:01;3.67;;;2.80;;
14847;SDS011;7516;43.570;1.448;2022-08-05T00:32:29;4.13;;;2.80;;
14847;SDS011;7516;43.570;1.448;2022-08-05T00:34:56;4.68;;;3.00;;
14847;SDS011;7516;43.570;1.448;2022-08-05T00:37:25;4.03;;;2.88;;
14847;SDS011;7516;43.570;1.448;2022-08-05T00:39:53;3.03;;;2.65;;
14847;SDS011;7516;43.570;1.448;2022-08-05T00:42:28;3.95;;;2.65;;
14847;SDS011;7516;43.570;1.448;2022-08-05T00:44:56;3.85;;;2.70;;
14847;SDS011;7516;43.570;1.448;2022-08-05T00:47:23;6.18;;;3.08;;
14847;SDS011;7516;43.570;1.448;2022-08-05T00:49:51;4.55;;;3.08;;
14847;SDS011;7516;43.570;1.448;2022-08-05T00:52:19;5.38;;;3.25;;
14847;SDS011;7516;43.570;1.448;2022-08-05T00:54:48;3.20;;;2.90;;
14847;SDS011;7516;43.570;1.448;2022-08-05T00:57:15;4.25;;;3.10;;
14847;SDS011;7516;43.570;1.448;2022-08-05T00:59:43;6.60;;;3.25;;
14847;SDS011;7516;43.570;1.448;2022-08-05T01:02:11;5.65;;;3.25;;
14847;SDS011;7516;43.570;1.448;2022-08-05T01:04:38;3.38;;;3.03;;
14847;SDS011;7516;43.570;1.448;2022-08-05T01:07:06;4.65;;;3.38;;
14847;SDS011;7516;43.570;1.448;2022-08-05T01:09:33;5.88;;;3.40;;
14847;SDS011;7516;43.570;1.448;2022-08-05T01:12:03;5.65;;;3.35;;
14847;SDS011;7516;43.570;1.448;2022-08-05T01:14:35;3.35;;;3.05;;
14847;SDS011;7516;43.570;1.448;2022-08-05T01:17:08;5.88;;;3.30;;
14847;SDS011;7516;43.570;1.448;2022-08-05T01:19:39;4.60;;;3.60;;
14847;SDS011;7516;43.570;1.448;2022-08-05T01:22:16;5.82;;;3.60;;
14847;SDS011;7516;43.570;1.448;2022-08-05T01:25:18;5.50;;;3.00;;
14847;SDS011;7516;43.570;1.448;2022-08-05T01:28:14;5.65;;;3.50;;
14847;SDS011;7516;43.570;1.448;2022-08-05T01:30:44;4.95;;;3.53;;
14847;SDS011;7516;43.570;1.448;2022-08-05T01:33:16;4.57;;;3.25;;
14847;SDS011;7516;43.570;1.448;2022-08-05T01:35:46;4.07;;;3.10;;
14847;SDS011;7516;43.570;1.448;2022-08-05T01:38:16;3.67;;;2.92;;
14847;SDS011;7516;43.570;1.448;2022-08-05T01:40:45;6.97;;;2.42;;
14847;SDS011;7516;43.570;1.448;2022-08-05T01:43:15;3.45;;;2.92;;
14847;SDS011;7516;43.570;1.448;2022-08-05T01:45:43;2.70;;;2.35;;
14847;SDS011;7516;43.570;1.448;2022-08-05T01:48:11;3.35;;;2.35;;
14847;SDS011;7516;43.570;1.448;2022-08-05T01:50:41;3.03;;;2.33;;
14847;SDS011;7516;43.570;1.448;2022-08-05T01:53:12;4.28;;;2.60;;
14847;SDS011;7516;43.570;1.448;2022-08-05T01:55:41;4.38;;;2.88;;
14847;SDS011;7516;43.570;1.448;2022-08-05T01:58:11;4.13;;;2.88;;
14847;SDS011;7516;43.570;1.448;2022-08-05T02:00:43;4.03;;;2.90;;
14847;SDS011;7516;43.570;1.448;2022-08-05T02:03:15;3.85;;;2.70;;
14847;SDS011;7516;43.570;1.448;2022-08-05T02:05:46;7.88;;;3.42;;
14847;SDS011;7516;43.570;1.448;2022-08-05T02:08:15;6.07;;;3.00;;
14847;SDS011;7516;43.570;1.448;2022-08-05T02:10:43;4.60;;;2.90;;
14847;SDS011;7516;43.570;1.448;2022-08-05T02:13:19;5.05;;;2.90;;
14847;SDS011;7516;43.570;1.448;2022-08-05T02:15:53;7.53;;;2.90;;
14847;SDS011;7516;43.570;1.448;2022-08-05T02:18:29;4.35;;;2.65;;
14847;SDS011;7516;43.570;1.448;2022-08-05T02:20:59;4.95;;;2.50;;
14847;SDS011;7516;43.570;1.448;2022-08-05T02:23:31;3.53;;;2.35;;
14847;SDS011;7516;43.570;1.448;2022-08-05T02:26:03;4.13;;;2.38;;
14847;SDS011;7516;43.570;1.448;2022-08-05T02:28:35;7.18;;;2.72;;
14847;SDS011;7516;43.570;1.448;2022-08-05T02:31:06;3.28;;;1.88;;
14847;SDS011;7516;43.570;1.448;2022-08-05T02:33:38;2.85;;;2.10;;
14847;SDS011;7516;43.570;1.448;2022-08-05T02:36:10;3.25;;;1.80;;
14847;SDS011;7516;43.570;1.448;2022-08-05T02:38:40;2.83;;;1.92;;
14847;SDS011;7516;43.570;1.448;2022-08-05T02:41:10;3.63;;;2.28;;
14847;SDS011;7516;43.570;1.448;2022-08-05T02:43:39;2.58;;;2.00;;
14847;SDS011;7516;43.570;1.448;2022-08-05T02:46:08;2.70;;;1.90;;
14847;SDS011;7516;43.570;1.448;2022-08-05T02:48:40;3.30;;;2.15;;
14847;SDS011;7516;43.570;1.448;2022-08-05T02:51:09;4.78;;;2.30;;
14847;SDS011;7516;43.570;1.448;2022-08-05T02:53:39;2.60;;;1.95;;
14847;SDS011;7516;43.570;1.448;2022-08-05T02:56:08;2.60;;;2.00;;
14847;SDS011;7516;43.570;1.448;2022-08-05T02:58:38;3.03;;;2.28;;
14847;SDS011;7516;43.570;1.448;2022-08-05T03:01:08;3.63;;;2.00;;
14847;SDS011;7516;43.570;1.448;2022-08-05T03:03:40;4.32;;;2.00;;
14847;SDS011;7516;43.570;1.448;2022-08-05T03:06:09;2.92;;;2.10;;
14847;SDS011;7516;43.570;1.448;2022-08-05T03:08:37;4.63;;;2.15;;
14847;SDS011;7516;43.570;1.448;2022-08-05T03:11:16;3.55;;;2.35;;
14847;SDS011;7516;43.570;1.448;2022-08-05T03:13:46;3.35;;;2.20;;
14847;SDS011;7516;43.570;1.448;2022-08-05T03:16:14;4.88;;;2.20;;
14847;SDS011;7516;43.570;1.448;2022-08-05T03:18:42;2.78;;;1.80;;
14847;SDS011;7516;43.570;1.448;2022-08-05T03:21:09;2.55;;;2.10;;
14847;SDS011;7516;43.570;1.448;2022-08-05T03:23:38;4.07;;;2.10;;
14847;SDS011;7516;43.570;1.448;2022-08-05T03:26:08;3.45;;;2.22;;
14847;SDS011;7516;43.570;1.448;2022-08-05T03:28:36;4.15;;;2.42;;
14847;SDS011;7516;43.570;1.448;2022-08-05T03:31:05;3.95;;;2.53;;
14847;SDS011;7516;43.570;1.448;2022-08-05T03:33:33;5.25;;;2.50;;
14847;SDS011;7516;43.570;1.448;2022-08-05T03:36:01;3.85;;;2.50;;
14847;SDS011;7516;43.570;1.448;2022-08-05T03:38:28;4.13;;;2.22;;
14847;SDS011;7516;43.570;1.448;2022-08-05T03:40:56;3.78;;;2.53;;
14847;SDS011;7516;43.570;1.448;2022-08-05T03:43:24;4.43;;;2.78;;
14847;SDS011;7516;43.570;1.448;2022-08-05T03:45:51;5.07;;;2.60;;
14847;SDS011;7516;43.570;1.448;2022-08-05T03:48:20;3.72;;;2.53;;
14847;SDS011;7516;43.570;1.448;2022-08-05T03:50:49;4.90;;;2.70;;
14847;SDS011;7516;43.570;1.448;2022-08-05T03:53:20;4.72;;;3.17;;
14847;SDS011;7516;43.570;1.448;2022-08-05T03:55:56;4.30;;;2.80;;
14847;SDS011;7516;43.570;1.448;2022-08-05T03:58:27;3.00;;;2.72;;
14847;SDS011;7516;43.570;1.448;2022-08-05T04:00:58;5.63;;;2.95;;
14847;SDS011;7516;43.570;1.448;2022-08-05T04:03:31;5.57;;;3.00;;
14847;SDS011;7516;43.570;1.448;2022-08-05T04:06:02;5.53;;;3.08;;
14847;SDS011;7516;43.570;1.448;2022-08-05T04:08:31;4.53;;;3.28;;
14847;SDS011;7516;43.570;1.448;2022-08-05T04:11:00;5.05;;;3.00;;
14847;SDS011;7516;43.570;1.448;2022-08-05T04:13:28;4.20;;;3.22;;
14847;SDS011;7516;43.570;1.448;2022-08-05T04:15:56;5.47;;;3.20;;
14847;SDS011;7516;43.570;1.448;2022-08-05T04:18:24;5.22;;;3.72;;
14847;SDS011;7516;43.570;1.448;2022-08-05T04:20:54;4.90;;;3.10;;
14847;SDS011;7516;43.570;1.448;2022-08-05T04:23:22;5.43;;;3.15;;
14847;SDS011;7516;43.570;1.448;2022-08-05T04:25:52;4.20;;;3.58;;
14847;SDS011;7516;43.570;1.448;2022-08-05T04:28:19;5.20;;;3.58;;
14847;SDS011;7516;43.570;1.448;2022-08-05T04:30:47;5.55;;;3.35;;
14847;SDS011;7516;43.570;1.448;2022-08-05T04:33:15;3.85;;;3.05;;
14847;SDS011;7516;43.570;1.448;2022-08-05T04:35:42;4.97;;;3.53;;
14847;SDS011;7516;43.570;1.448;2022-08-05T04:38:12;4.68;;;3.30;;
14847;SDS011;7516;43.570;1.448;2022-08-05T04:40:39;5.35;;;3.50;;
14847;SDS011;7516;43.570;1.448;2022-08-05T04:43:07;7.03;;;3.88;;
14847;SDS011;7516;43.570;1.448;2022-08-05T04:45:34;6.95;;;3.60;;
14847;SDS011;7516;43.570;1.448;2022-08-05T04:48:05;5.45;;;3.60;;
14847;SDS011;7516;43.570;1.448;2022-08-05T04:50:37;7.18;;;4.07;;
14847;SDS011;7516;43.570;1.448;2022-08-05T04:53:06;4.95;;;3.53;;
14847;SDS011;7516;43.570;1.448;2022-08-05T04:55:36;6.10;;;3.80;;
14847;SDS011;7516;43.570;1.448;2022-08-05T04:58:04;5.90;;;3.17;;
14847;SDS011;7516;43.570;1.448;2022-08-05T05:00:32;5.68;;;3.47;;
14847;SDS011;7516;43.570;1.448;2022-08-05T05:03:01;5.80;;;3.40;;
14847;SDS011;7516;43.570;1.448;2022-08-05T05:05:29;5.15;;;3.25;;
14847;SDS011;7516;43.570;1.448;2022-08-05T05:07:58;4.50;;;3.50;;
14847;SDS011;7516;43.570;1.448;2022-08-05T05:10:27;4.63;;;3.08;;
14847;SDS011;7516;43.570;1.448;2022-08-05T05:12:57;5.25;;;3.58;;
14847;SDS011;7516;43.570;1.448;2022-08-05T05:15:24;4.88;;;3.30;;
14847;SDS011;7516;43.570;1.448;2022-08-05T05:17:52;4.95;;;3.47;;
14847;SDS011;7516;43.570;1.448;2022-08-05T05:20:19;4.55;;;3.15;;
14847;SDS011;7516;43.570;1.448;2022-08-05T05:22:47;6.65;;;3.55;;
14847;SDS011;7516;43.570;1.448;2022-08-05T05:25:14;5.18;;;3.55;;
14847;SDS011;7516;43.570;1.448;2022-08-05T05:27:42;4.75;;;3.50;;
14847;SDS011;7516;43.570;1.448;2022-08-05T05:30:12;5.70;;;3.63;;
14847;SDS011;7516;43.570;1.448;2022-08-05T05:32:40;5.28;;;3.45;;
14847;SDS011;7516;43.570;1.448;2022-08-05T05:35:07;5.03;;;3.60;;
14847;SDS011;7516;43.570;1.448;2022-08-05T05:37:44;5.47;;;3.33;;
14847;SDS011;7516;43.570;1.448;2022-08-05T05:40:13;6.13;;;3.90;;
14847;SDS011;7516;43.570;1.448;2022-08-05T05:42:41;6.00;;;3.60;;
14847;SDS011;7516;43.570;1.448;2022-08-05T05:45:09;5.82;;;3.05;;
14847;SDS011;7516;43.570;1.448;2022-08-05T05:47:38;4.55;;;3.50;;
14847;SDS011;7516;43.570;1.448;2022-08-05T05:50:06;4.10;;;3.20;;
14847;SDS011;7516;43.570;1.448;2022-08-05T05:52:34;4.80;;;3.70;;
14847;SDS011;7516;43.570;1.448;2022-08-05T05:55:03;4.63;;;3.53;;
14847;SDS011;7516;43.570;1.448;2022-08-05T05:57:33;4.72;;;3.28;;
14847;SDS011;7516;43.570;1.448;2022-08-05T06:00:00;8.40;;;3.58;;
14847;SDS011;7516;43.570;1.448;2022-08-05T06:02:30;5.00;;;3.58;;
14847;SDS011;7516;43.570;1.448;2022-08-05T06:04:57;5.50;;;3.83;;
14847;SDS011;7516;43.570;1.448;2022-08-05T06:07:25;6.45;;;3.75;;
14847;SDS011;7516;43.570;1.448;2022-08-05T06:09:52;5.78;;;3.55;;
14847;SDS011;7516;43.570;1.448;2022-08-05T06:12:20;4.15;;;3.38;;
14847;SDS011;7516;43.570;1.448;2022-08-05T06:14:47;5.88;;;3.53;;
14847;SDS011;7516;43.570;1.448;2022-08-05T06:17:15;7.00;;;4.03;;
14847;SDS011;7516;43.570;1.448;2022-08-05T06:19:44;5.05;;;3.70;;
14847;SDS011;7516;43.570;1.448;2022-08-05T06:22:11;6.07;;;3.55;;
14847;SDS011;7516;43.570;1.448;2022-08-05T06:24:47;5.97;;;4.00;;
14847;SDS011;7516;43.570;1.448;2022-08-05T06:27:15;6.90;;;3.85;;
14847;SDS011;7516;43.570;1.448;2022-08-05T06:29:42;5.90;;;3.70;;
14847;SDS011;7516;43.570;1.448;2022-08-05T06:32:10;5.57;;;3.78;;
14847;SDS011;7516;43.570;1.448;2022-08-05T06:34:38;7.70;;;4.22;;
14847;SDS011;7516;43.570;1.448;2022-08-05T06:37:07;6.82;;;3.65;;
14847;SDS011;7516;43.570;1.448;2022-08-05T06:39:35;5.68;;;4.20;;
14847;SDS011;7516;43.570;1.448;2022-08-05T06:42:03;5.88;;;4.20;;
14847;SDS011;7516;43.570;1.448;2022-08-05T06:44:31;8.98;;;4.15;;
14847;SDS011;7516;43.570;1.448;2022-08-05T06:46:58;6.78;;;4.35;;
14847;SDS011;7516;43.570;1.448;2022-08-05T06:49:26;6.15;;;4.22;;
14847;SDS011;7516;43.570;1.448;2022-08-05T06:51:53;6.65;;;3.85;;
14847;SDS011;7516;43.570;1.448;2022-08-05T06:54:22;6.78;;;4.40;;
14847;SDS011;7516;43.570;1.448;2022-08-05T06:56:50;5.93;;;4.03;;
14847;SDS011;7516;43.570;1.448;2022-08-05T06:59:17;5.38;;;4.03;;
14847;SDS011;7516;43.570;1.448;2022-08-05T07:01:45;7.43;;;4.30;;
14847;SDS011;7516;43.570;1.448;2022-08-05T07:04:12;6.00;;;4.50;;
14847;SDS011;7516;43.570;1.448;2022-08-05T07:06:40;6.90;;;4.82;;
14847;SDS011;7516;43.570;1.448;2022-08-05T07:09:07;7.40;;;4.80;;
14847;SDS011;7516;43.570;1.448;2022-08-05T07:11:36;6.90;;;4.70;;
14847;SDS011;7516;43.570;1.448;2022-08-05T07:14:03;6.35;;;4.32;;
14847;SDS011;7516;43.570;1.448;2022-08-05T07:16:49;7.05;;;4.63;;
14847;SDS011;7516;43.570;1.448;2022-08-05T07:19:16;6.70;;;4.70;;
14847;SDS011;7516;43.570;1.448;2022-08-05T07:21:46;7.40;;;4.55;;
14847;SDS011;7516;43.570;1.448;2022-08-05T07:24:14;10.18;;;4.90;;
14847;SDS011;7516;43.570;1.448;2022-08-05T07:26:44;5.43;;;4.53;;
14847;SDS011;7516;43.570;1.448;2022-08-05T07:29:12;5.68;;;4.55;;
14847;SDS011;7516;43.570;1.448;2022-08-05T07:31:40;5.80;;;5.10;;
14847;SDS011;7516;43.570;1.448;2022-08-05T07:34:08;5.85;;;4.57;;
14847;SDS011;7516;43.570;1.448;2022-08-05T07:36:36;6.30;;;4.38;;
14847;SDS011;7516;43.570;1.448;2022-08-05T07:39:04;7.05;;;4.43;;
14847;SDS011;7516;43.570;1.448;2022-08-05T07:41:33;7.15;;;4.70;;
14847;SDS011;7516;43.570;1.448;2022-08-05T07:44:03;6.05;;;4.20;;
14847;SDS011;7516;43.570;1.448;2022-08-05T07:46:31;8.05;;;4.40;;
14847;SDS011;7516;43.570;1.448;2022-08-05T07:49:00;8.18;;;4.00;;
14847;SDS011;7516;43.570;1.448;2022-08-05T07:51:28;6.95;;;4.28;;
14847;SDS011;7516;43.570;1.448;2022-08-05T07:53:56;8.35;;;4.07;;
14847;SDS011;7516;43.570;1.448;2022-08-05T07:56:24;6.63;;;4.03;;
14847;SDS011;7516;43.570;1.448;2022-08-05T07:58:51;5.70;;;4.43;;
14847;SDS011;7516;43.570;1.448;2022-08-05T08:01:20;5.90;;;4.10;;
14847;SDS011;7516;43.570;1.448;2022-08-05T08:03:50;5.63;;;4.50;;
14847;SDS011;7516;43.570;1.448;2022-08-05T08:06:17;7.20;;;4.10;;
14847;SDS011;7516;43.570;1.448;2022-08-05T08:08:45;6.63;;;3.90;;
14847;SDS011;7516;43.570;1.448;2022-08-05T08:11:12;5.32;;;3.53;;
14847;SDS011;7516;43.570;1.448;2022-08-05T08:13:40;6.72;;;3.60;;
14847;SDS011;7516;43.570;1.448;2022-08-05T08:16:07;7.53;;;3.80;;
14847;SDS011;7516;43.570;1.448;2022-08-05T08:18:36;4.35;;;3.53;;
14847;SDS011;7516;43.570;1.448;2022-08-05T08:21:04;6.75;;;4.38;;
14847;SDS011;7516;43.570;1.448;2022-08-05T08:23:32;6.10;;;3.85;;
14847;SDS011;7516;43.570;1.448;2022-08-05T08:25:59;8.93;;;3.83;;
14847;SDS011;7516;43.570;1.448;2022-08-05T08:28:27;5.38;;;3.67;;
14847;SDS011;7516;43.570;1.448;2022-08-05T08:30:54;4.63;;;3.88;;
14847;SDS011;7516;43.570;1.448;2022-08-05T08:33:22;5.72;;;3.83;;
14847;SDS011;7516;43.570;1.448;2022-08-05T08:35:51;8.85;;;3.20;;
14847;SDS011;7516;43.570;1.448;2022-08-05T08:38:18;6.70;;;3.40;;
14847;SDS011;7516;43.570;1.448;2022-08-05T08:40:46;7.07;;;3.83;;
14847;SDS011;7516;43.570;1.448;2022-08-05T08:43:14;7.80;;;3.50;;
14847;SDS011;7516;43.570;1.448;2022-08-05T08:45:44;6.07;;;3.80;;
14847;SDS011;7516;43.570;1.448;2022-08-05T08:48:14;7.72;;;3.40;;
14847;SDS011;7516;43.570;1.448;2022-08-05T08:50:44;7.07;;;3.45;;
14847;SDS011;7516;43.570;1.448;2022-08-05T08:53:15;8.07;;;3.67;;
14847;SDS011;7516;43.570;1.448;2022-08-05T08:55:43;6.75;;;4.00;;
14847;SDS011;7516;43.570;1.448;2022-08-05T08:58:11;5.10;;;3.45;;
14847;SDS011;7516;43.570;1.448;2022-08-05T09:00:41;5.57;;;3.92;;
14847;SDS011;7516;43.570;1.448;2022-08-05T09:03:11;6.15;;;3.88;;
14847;SDS011;7516;43.570;1.448;2022-08-05T09:05:38;5.35;;;3.70;;
14847;SDS011;7516;43.570;1.448;2022-08-05T09:08:06;5.80;;;3.90;;
14847;SDS011;7516;43.570;1.448;2022-08-05T09:10:35;8.88;;;4.40;;
14847;SDS011;7516;43.570;1.448;2022-08-05T09:13:05;5.78;;;3.58;;
14847;SDS011;7516;43.570;1.448;2022-08-05T09:15:33;7.47;;;3.72;;
14847;SDS011;7516;43.570;1.448;2022-08-05T09:18:05;4.88;;;3.92;;
14847;SDS011;7516;43.570;1.448;2022-08-05T09:20:33;8.98;;;4.13;;
14847;SDS011;7516;43.570;1.448;2022-08-05T09:23:05;7.22;;;3.97;;
14847;SDS011;7516;43.570;1.448;2022-08-05T09:25:37;6.40;;;3.83;;
14847;SDS011;7516;43.570;1.448;2022-08-05T09:28:13;7.75;;;3.72;;
14847;SDS011;7516;43.570;1.448;2022-08-05T09:30:43;8.07;;;4.30;;
14847;SDS011;7516;43.570;1.448;2022-08-05T09:33:17;6.85;;;3.67;;
14847;SDS011;7516;43.570;1.448;2022-08-05T09:35:51;6.43;;;3.78;;
14847;SDS011;7516;43.570;1.448;2022-08-05T09:38:21;7.13;;;3.95;;
14847;SDS011;7516;43.570;1.448;2022-08-05T09:40:50;7.68;;;3.78;;
14847;SDS011;7516;43.570;1.448;2022-08-05T09:43:24;6.88;;;4.00;;
14847;SDS011;7516;43.570;1.448;2022-08-05T09:45:53;4.75;;;3.28;;
14847;SDS011;7516;43.570;1.448;2022-08-05T09:48:21;5.90;;;3.38;;
14847;SDS011;7516;43.570;1.448;2022-08-05T09:50:51;4.38;;;3.42;;
14847;SDS011;7516;43.570;1.448;2022-08-05T09:53:20;7.40;;;4.50;;
14847;SDS011;7516;43.570;1.448;2022-08-05T09:55:53;5.80;;;3.35;;
14847;SDS011;7516;43.570;1.448;2022-08-05T09:58:22;7.70;;;3.90;;
14847;SDS011;7516;43.570;1.448;2022-08-05T10:00:55;9.13;;;4.32;;
14847;SDS011;7516;43.570;1.448;2022-08-05T10:03:24;7.18;;;3.72;;
14847;SDS011;7516;43.570;1.448;2022-08-05T10:05:59;6.57;;;3.80;;
14847;SDS011;7516;43.570;1.448;2022-08-05T10:08:30;6.88;;;3.50;;
14847;SDS011;7516;43.570;1.448;2022-08-05T10:11:00;7.82;;;3.80;;
14847;SDS011;7516;43.570;1.448;2022-08-05T10:13:30;5.45;;;3.33;;
14847;SDS011;7516;43.570;1.448;2022-08-05T10:16:01;6.70;;;3.67;;
14847;SDS011;7516;43.570;1.448;2022-08-05T10:18:29;6.13;;;3.10;;
14847;SDS011;7516;43.570;1.448;2022-08-05T10:20:58;5.07;;;3.08;;
14847;SDS011;7516;43.570;1.448;2022-08-05T10:23:27;5.50;;;3.08;;
14847;SDS011;7516;43.570;1.448;2022-08-05T10:25:57;4.88;;;3.30;;
14847;SDS011;7516;43.570;1.448;2022-08-05T10:28:27;4.65;;;2.53;;
14847;SDS011;7516;43.570;1.448;2022-08-05T10:30:55;4.10;;;2.53;;
14847;SDS011;7516;43.570;1.448;2022-08-05T10:33:25;4.72;;;2.65;;
14847;SDS011;7516;43.570;1.448;2022-08-05T10:35:55;3.78;;;2.08;;
14847;SDS011;7516;43.570;1.448;2022-08-05T10:38:25;4.30;;;2.10;;
14847;SDS011;7516;43.570;1.448;2022-08-05T10:40:55;3.92;;;2.20;;
14847;SDS011;7516;43.570;1.448;2022-08-05T10:43:34;4.43;;;2.08;;
14847;SDS011;7516;43.570;1.448;2022-08-05T10:46:09;4.38;;;2.10;;
14847;SDS011;7516;43.570;1.448;2022-08-05T10:48:38;2.83;;;1.90;;
14847;SDS011;7516;43.570;1.448;2022-08-05T10:51:07;1.75;;;1.55;;
14847;SDS011;7516;43.570;1.448;2022-08-05T10:53:41;5.65;;;2.25;;
14847;SDS011;7516;43.570;1.448;2022-08-05T10:56:13;4.30;;;1.77;;
14847;SDS011;7516;43.570;1.448;2022-08-05T10:58:49;2.78;;;1.75;;
14847;SDS011;7516;43.570;1.448;2022-08-05T11:01:32;2.78;;;1.63;;
14847;SDS011;7516;43.570;1.448;2022-08-05T11:04:10;3.67;;;1.80;;
14847;SDS011;7516;43.570;1.448;2022-08-05T11:09:41;4.60;;;1.75;;
14847;SDS011;7516;43.570;1.448;2022-08-05T11:15:18;3.47;;;1.60;;
14847;SDS011;7516;43.570;1.448;2022-08-05T11:17:47;2.72;;;1.67;;
14847;SDS011;7516;43.570;1.448;2022-08-05T11:20:32;3.15;;;1.70;;
14847;SDS011;7516;43.570;1.448;2022-08-05T11:26:02;4.57;;;1.73;;
14847;SDS011;7516;43.570;1.448;2022-08-05T11:28:43;5.97;;;1.98;;
14847;SDS011;7516;43.570;1.448;2022-08-05T11:31:18;4.72;;;1.60;;
14847;SDS011;7516;43.570;1.448;2022-08-05T11:33:52;3.30;;;1.77;;
14847;SDS011;7516;43.570;1.448;2022-08-05T11:39:06;3.72;;;1.65;;
14847;SDS011;7516;43.570;1.448;2022-08-05T11:41:34;3.28;;;1.88;;
14847;SDS011;7516;43.570;1.448;2022-08-05T11:44:04;3.78;;;1.95;;
14847;SDS011;7516;43.570;1.448;2022-08-05T11:46:35;2.90;;;1.80;;
14847;SDS011;7516;43.570;1.448;2022-08-05T11:49:05;4.25;;;1.88;;
14847;SDS011;7516;43.570;1.448;2022-08-05T11:51:37;3.42;;;1.70;;
14847;SDS011;7516;43.570;1.448;2022-08-05T11:54:09;4.82;;;1.80;;
14847;SDS011;7516;43.570;1.448;2022-08-05T11:56:44;4.03;;;1.75;;
14847;SDS011;7516;43.570;1.448;2022-08-05T11:59:18;3.50;;;1.65;;
14847;SDS011;7516;43.570;1.448;2022-08-05T12:01:53;3.67;;;1.58;;
14847;SDS011;7516;43.570;1.448;2022-08-05T12:04:22;4.18;;;1.60;;
14847;SDS011;7516;43.570;1.448;2022-08-05T12:06:50;3.97;;;1.92;;
14847;SDS011;7516;43.570;1.448;2022-08-05T12:09:20;4.97;;;1.88;;
14847;SDS011;7516;43.570;1.448;2022-08-05T12:11:50;4.90;;;1.90;;
14847;SDS011;7516;43.570;1.448;2022-08-05T12:14:20;2.95;;;1.73;;
14847;SDS011;7516;43.570;1.448;2022-08-05T12:16:49;3.83;;;1.80;;
14847;SDS011;7516;43.570;1.448;2022-08-05T12:19:17;3.72;;;1.70;;
14847;SDS011;7516;43.570;1.448;2022-08-05T12:21:47;2.60;;;1.80;;
14847;SDS011;7516;43.570;1.448;2022-08-05T12:24:16;2.92;;;1.73;;
14847;SDS011;7516;43.570;1.448;2022-08-05T12:26:46;4.60;;;1.92;;
14847;SDS011;7516;43.570;1.448;2022-08-05T12:29:16;6.45;;;1.60;;
14847;SDS011;7516;43.570;1.448;2022-08-05T12:31:46;5.07;;;1.85;;
14847;SDS011;7516;43.570;1.448;2022-08-05T12:34:15;4.45;;;1.80;;
14847;SDS011;7516;43.570;1.448;2022-08-05T12:36:44;2.50;;;1.58;;
14847;SDS011;7516;43.570;1.448;2022-08-05T12:39:12;3.25;;;1.52;;
14847;SDS011;7516;43.570;1.448;2022-08-05T12:41:40;4.47;;;1.70;;
14847;SDS011;7516;43.570;1.448;2022-08-05T12:44:08;2.90;;;1.80;;
14847;SDS011;7516;43.570;1.448;2022-08-05T12:46:37;4.15;;;1.70;;
14847;SDS011;7516;43.570;1.448;2022-08-05T12:49:08;5.45;;;1.60;;
14847;SDS011;7516;43.570;1.448;2022-08-05T12:51:44;4.68;;;1.88;;
14847;SDS011;7516;43.570;1.448;2022-08-05T12:54:17;3.25;;;1.80;;
14847;SDS011;7516;43.570;1.448;2022-08-05T12:56:46;4.45;;;1.70;;
14847;SDS011;7516;43.570;1.448;2022-08-05T12:59:17;2.75;;;1.63;;
14847;SDS011;7516;43.570;1.448;2022-08-05T13:01:56;4.53;;;1.77;;
14847;SDS011;7516;43.570;1.448;2022-08-05T13:04:26;4.43;;;1.73;;
14847;SDS011;7516;43.570;1.448;2022-08-05T13:06:55;4.25;;;1.60;;
14847;SDS011;7516;43.570;1.448;2022-08-05T13:09:24;4.50;;;1.80;;
14847;SDS011;7516;43.570;1.448;2022-08-05T13:11:56;3.00;;;1.60;;
14847;SDS011;7516;43.570;1.448;2022-08-05T13:14:33;4.63;;;2.00;;
14847;SDS011;7516;43.570;1.448;2022-08-05T13:17:01;5.45;;;1.80;;
14847;SDS011;7516;43.570;1.448;2022-08-05T13:19:34;2.85;;;1.60;;
14847;SDS011;7516;43.570;1.448;2022-08-05T13:22:02;3.95;;;1.77;;
14847;SDS011;7516;43.570;1.448;2022-08-05T13:24:30;3.75;;;1.60;;
14847;SDS011;7516;43.570;1.448;2022-08-05T13:26:57;4.78;;;1.88;;
14847;SDS011;7516;43.570;1.448;2022-08-05T13:29:25;3.47;;;1.80;;
14847;SDS011;7516;43.570;1.448;2022-08-05T13:31:52;4.00;;;1.83;;
14847;SDS011;7516;43.570;1.448;2022-08-05T13:34:22;10.25;;;2.15;;
14847;SDS011;7516;43.570;1.448;2022-08-05T13:36:51;4.82;;;1.58;;
14847;SDS011;7516;43.570;1.448;2022-08-05T13:39:19;3.47;;;1.73;;
14847;SDS011;7516;43.570;1.448;2022-08-05T13:41:46;5.03;;;1.65;;
14847;SDS011;7516;43.570;1.448;2022-08-05T13:44:14;4.85;;;2.00;;
14847;SDS011;7516;43.570;1.448;2022-08-05T13:46:41;5.85;;;1.60;;
14847;SDS011;7516;43.570;1.448;2022-08-05T13:49:09;5.03;;;1.80;;
14847;SDS011;7516;43.570;1.448;2022-08-05T13:51:36;4.25;;;1.80;;
14847;SDS011;7516;43.570;1.448;2022-08-05T13:54:06;2.88;;;1.50;;
14847;SDS011;7516;43.570;1.448;2022-08-05T13:56:33;4.13;;;1.50;;
14847;SDS011;7516;43.570;1.448;2022-08-05T13:59:01;3.63;;;1.60;;
14847;SDS011;7516;43.570;1.448;2022-08-05T14:01:28;6.22;;;1.63;;
14847;SDS011;7516;43.570;1.448;2022-08-05T14:03:56;4.47;;;1.98;;
14847;SDS011;7516;43.570;1.448;2022-08-05T14:06:41;3.97;;;1.60;;
14847;SDS011;7516;43.570;1.448;2022-08-05T14:09:10;3.58;;;1.70;;
14847;SDS011;7516;43.570;1.448;2022-08-05T14:11:37;2.72;;;1.60;;
14847;SDS011;7516;43.570;1.448;2022-08-05T14:14:05;5.75;;;1.60;;
14847;SDS011;7516;43.570;1.448;2022-08-05T14:16:33;5.78;;;1.88;;
14847;SDS011;7516;43.570;1.448;2022-08-05T14:19:00;4.68;;;1.45;;
14847;SDS011;7516;43.570;1.448;2022-08-05T14:21:28;5.47;;;1.50;;
14847;SDS011;7516;43.570;1.448;2022-08-05T14:23:55;3.35;;;1.70;;
14847;SDS011;7516;43.570;1.448;2022-08-05T14:26:24;3.92;;;1.70;;
14847;SDS011;7516;43.570;1.448;2022-08-05T14:28:52;2.97;;;1.48;;
14847;SDS011;7516;43.570;1.448;2022-08-05T14:31:19;3.65;;;1.60;;
14847;SDS011;7516;43.570;1.448;2022-08-05T14:33:47;5.78;;;2.10;;
14847;SDS011;7516;43.570;1.448;2022-08-05T14:36:14;3.05;;;1.70;;
14847;SDS011;7516;43.570;1.448;2022-08-05T14:38:41;3.75;;;1.50;;
14847;SDS011;7516;43.570;1.448;2022-08-05T14:41:09;4.13;;;1.73;;
14847;SDS011;7516;43.570;1.448;2022-08-05T14:43:38;4.97;;;1.58;;
14847;SDS011;7516;43.570;1.448;2022-08-05T14:46:05;4.80;;;1.70;;
14847;SDS011;7516;43.570;1.448;2022-08-05T14:48:33;5.90;;;1.77;;
14847;SDS011;7516;43.570;1.448;2022-08-05T14:51:00;3.75;;;1.67;;
14847;SDS011;7516;43.570;1.448;2022-08-05T14:53:28;4.03;;;1.63;;
14847;SDS011;7516;43.570;1.448;2022-08-05T14:55:55;3.47;;;1.52;;
14847;SDS011;7516;43.570;1.448;2022-08-05T14:58:23;6.80;;;2.45;;
14847;SDS011;7516;43.570;1.448;2022-08-05T15:00:52;4.55;;;1.70;;
14847;SDS011;7516;43.570;1.448;2022-08-05T15:03:19;7.80;;;1.52;;
14847;SDS011;7516;43.570;1.448;2022-08-05T15:05:47;3.88;;;1.60;;
14847;SDS011;7516;43.570;1.448;2022-08-05T15:08:14;5.78;;;1.90;;
14847;SDS011;7516;43.570;1.448;2022-08-05T15:10:42;3.72;;;1.80;;
14847;SDS011;7516;43.570;1.448;2022-08-05T15:13:09;5.50;;;1.80;;
14847;SDS011;7516;43.570;1.448;2022-08-05T15:15:37;5.65;;;1.92;;
14847;SDS011;7516;43.570;1.448;2022-08-05T15:18:06;6.07;;;1.98;;
14847;SDS011;7516;43.570;1.448;2022-08-05T15:20:33;4.40;;;1.48;;
14847;SDS011;7516;43.570;1.448;2022-08-05T15:23:02;4.28;;;1.83;;
14847;SDS011;7516;43.570;1.448;2022-08-05T15:25:30;5.25;;;1.60;;